sensor_id;sensor_type;location;lat;lon;timestamp;pressure;altitude;pressure_sealevel;temperature;humidity
52651;BME280;38537;47.226;39.702;2023-04-06T00:01:45;100022.00;;;14.97;59.40
52651;BME280;38537;47.226;39.702;2023-04-06T00:04:13;99993.44;;;14.95;59.66
52651;BME280;38537;47.226;39.702;2023-04-06T00:06:41;100006.16;;;15.26;57.99
52651;BME280;38537;47.226;39.702;2023-04-06T00:09:08;99993.75;;;15.27;57.83
52651;BME280;38537;47.226;39.702;2023-04-06T00:11:35;100008.06;;;15.34;58.35
52651;BME280;38537;47.226;39.702;2023-04-06T00:14:03;100011.56;;;15.31;58.13
52651;BME280;38537;47.226;39.702;2023-04-06T00:16:30;100003.97;;;15.31;58.19
52651;BME280;38537;47.226;39.702;2023-04-06T00:18:57;100015.22;;;15.43;57.67
52651;BME280;38537;47.226;39.702;2023-04-06T00:21:25;100003.97;;;15.43;56.79
52651;BME280;38537;47.226;39.702;2023-04-06T00:23:52;100021.00;;;15.59;56.81
52651;BME280;38537;47.226;39.702;2023-04-06T00:26:20;100028.19;;;15.57;57.17
52651;BME280;38537;47.226;39.702;2023-04-06T00:28:48;100024.03;;;15.54;57.69
52651;BME280;38537;47.226;39.702;2023-04-06T00:31:17;100030.09;;;15.44;58.39
52651;BME280;38537;47.226;39.702;2023-04-06T00:33:44;100021.88;;;15.27;59.03
52651;BME280;38537;47.226;39.702;2023-04-06T00:36:11;100032.94;;;15.44;57.94
52651;BME280;38537;47.226;39.702;2023-04-06T00:38:39;100038.81;;;15.51;58.13
52651;BME280;38537;47.226;39.702;2023-04-06T00:41:06;100018.56;;;15.58;56.99
52651;BME280;38537;47.226;39.702;2023-04-06T00:43:33;100020.56;;;15.57;57.96
52651;BME280;38537;47.226;39.702;2023-04-06T00:46:01;100017.81;;;15.49;58.45
52651;BME280;38537;47.226;39.702;2023-04-06T00:48:28;100011.84;;;15.50;57.76
52651;BME280;38537;47.226;39.702;2023-04-06T00:50:59;100014.63;;;15.38;58.00
52651;BME280;38537;47.226;39.702;2023-04-06T00:53:26;100013.56;;;15.30;58.05
52651;BME280;38537;47.226;39.702;2023-04-06T00:55:56;100025.13;;;15.17;58.46
52651;BME280;38537;47.226;39.702;2023-04-06T00:58:24;100025.09;;;15.04;58.42
52651;BME280;38537;47.226;39.702;2023-04-06T01:01:00;100037.38;;;15.00;58.82
52651;BME280;38537;47.226;39.702;2023-04-06T01:03:27;100027.59;;;14.85;59.41
52651;BME280;38537;47.226;39.702;2023-04-06T01:05:55;100033.91;;;14.82;60.06
52651;BME280;38537;47.226;39.702;2023-04-06T01:08:32;100007.81;;;14.61;60.43
52651;BME280;38537;47.226;39.702;2023-04-06T01:11:12;100038.34;;;14.71;60.34
52651;BME280;38537;47.226;39.702;2023-04-06T01:13:39;100035.53;;;14.71;60.76
52651;BME280;38537;47.226;39.702;2023-04-06T01:16:14;100026.84;;;14.76;60.61
52651;BME280;38537;47.226;39.702;2023-04-06T01:19:18;100033.88;;;14.70;61.18
52651;BME280;38537;47.226;39.702;2023-04-06T01:21:49;100023.03;;;14.60;61.14
52651;BME280;38537;47.226;39.702;2023-04-06T01:24:29;100023.53;;;14.62;61.06
52651;BME280;38537;47.226;39.702;2023-04-06T01:27:15;100016.47;;;14.56;61.79
52651;BME280;38537;47.226;39.702;2023-04-06T01:30:03;100035.94;;;14.61;61.93
52651;BME280;38537;47.226;39.702;2023-04-06T01:32:45;100035.94;;;14.61;62.02
52651;BME280;38537;47.226;39.702;2023-04-06T01:35:15;100041.94;;;14.51;62.57
52651;BME280;38537;47.226;39.702;2023-04-06T01:37:52;100045.94;;;14.50;63.06
52651;BME280;38537;47.226;39.702;2023-04-06T01:40:26;100047.78;;;14.46;63.29
52651;BME280;38537;47.226;39.702;2023-04-06T01:42:53;100021.72;;;14.36;63.54
52651;BME280;38537;47.226;39.702;2023-04-06T01:45:29;100041.16;;;14.50;63.46
52651;BME280;38537;47.226;39.702;2023-04-06T01:48:03;100041.75;;;14.56;63.40
52651;BME280;38537;47.226;39.702;2023-04-06T01:50:30;100026.03;;;14.55;63.36
52651;BME280;38537;47.226;39.702;2023-04-06T01:52:59;100027.69;;;14.56;63.40
52651;BME280;38537;47.226;39.702;2023-04-06T01:55:27;100045.78;;;14.67;63.43
52651;BME280;38537;47.226;39.702;2023-04-06T01:58:30;100040.84;;;14.64;63.83
52651;BME280;38537;47.226;39.702;2023-04-06T02:00:57;100036.88;;;14.65;63.68
52651;BME280;38537;47.226;39.702;2023-04-06T02:03:28;100052.16;;;14.76;63.68
52651;BME280;38537;47.226;39.702;2023-04-06T02:06:04;100051.56;;;14.70;63.73
52651;BME280;38537;47.226;39.702;2023-04-06T02:08:36;100050.44;;;14.63;64.09
52651;BME280;38537;47.226;39.702;2023-04-06T02:11:04;100061.00;;;14.66;64.79
52651;BME280;38537;47.226;39.702;2023-04-06T02:13:40;100055.41;;;14.66;65.04
52651;BME280;38537;47.226;39.702;2023-04-06T02:16:10;100065.66;;;14.62;65.31
52651;BME280;38537;47.226;39.702;2023-04-06T02:18:37;100073.63;;;14.60;65.65
52651;BME280;38537;47.226;39.702;2023-04-06T02:21:04;100049.63;;;14.42;66.43
52651;BME280;38537;47.226;39.702;2023-04-06T02:23:32;100065.25;;;14.51;66.67
52651;BME280;38537;47.226;39.702;2023-04-06T02:25:59;100058.53;;;14.44;66.78
52651;BME280;38537;47.226;39.702;2023-04-06T02:28:26;100064.84;;;14.40;66.96
52651;BME280;38537;47.226;39.702;2023-04-06T02:30:54;100050.00;;;14.31;66.92
52651;BME280;38537;47.226;39.702;2023-04-06T02:33:25;100066.31;;;14.38;67.46
52651;BME280;38537;47.226;39.702;2023-04-06T02:35:58;100058.06;;;14.33;67.10
52651;BME280;38537;47.226;39.702;2023-04-06T02:38:26;100069.78;;;14.35;67.58
52651;BME280;38537;47.226;39.702;2023-04-06T02:40:53;100084.31;;;14.46;66.27
52651;BME280;38537;47.226;39.702;2023-04-06T02:43:24;100079.44;;;14.55;65.11
52651;BME280;38537;47.226;39.702;2023-04-06T02:46:00;100083.88;;;14.56;65.53
52651;BME280;38537;47.226;39.702;2023-04-06T02:48:31;100095.13;;;14.77;64.02
52651;BME280;38537;47.226;39.702;2023-04-06T02:50:59;100085.41;;;14.74;64.77
52651;BME280;38537;47.226;39.702;2023-04-06T02:53:26;100109.88;;;14.73;65.93
52651;BME280;38537;47.226;39.702;2023-04-06T02:55:55;100118.38;;;14.65;66.01
52651;BME280;38537;47.226;39.702;2023-04-06T02:58:29;100096.97;;;14.52;66.73
52651;BME280;38537;47.226;39.702;2023-04-06T03:00:57;100104.16;;;14.40;67.42
52651;BME280;38537;47.226;39.702;2023-04-06T03:03:24;100110.50;;;14.29;67.52
52651;BME280;38537;47.226;39.702;2023-04-06T03:05:52;100107.53;;;14.25;68.14
52651;BME280;38537;47.226;39.702;2023-04-06T03:08:26;100112.13;;;14.30;67.98
52651;BME280;38537;47.226;39.702;2023-04-06T03:10:53;100098.97;;;14.22;68.30
52651;BME280;38537;47.226;39.702;2023-04-06T03:13:28;100124.31;;;14.43;67.56
52651;BME280;38537;47.226;39.702;2023-04-06T03:15:56;100118.03;;;14.37;68.06
52651;BME280;38537;47.226;39.702;2023-04-06T03:18:25;100099.44;;;14.24;68.04
52651;BME280;38537;47.226;39.702;2023-04-06T03:20:55;100108.59;;;14.50;66.27
52651;BME280;38537;47.226;39.702;2023-04-06T03:23:31;100106.09;;;14.49;66.51
52651;BME280;38537;47.226;39.702;2023-04-06T03:26:01;100134.75;;;14.63;66.34
52651;BME280;38537;47.226;39.702;2023-04-06T03:28:29;100130.00;;;14.55;66.63
52651;BME280;38537;47.226;39.702;2023-04-06T03:30:59;100126.78;;;14.44;67.30
52651;BME280;38537;47.226;39.702;2023-04-06T03:34:05;100151.25;;;14.44;67.48
52651;BME280;38537;47.226;39.702;2023-04-06T03:36:35;100120.78;;;14.16;68.18
52651;BME280;38537;47.226;39.702;2023-04-06T03:39:03;100140.13;;;14.18;68.58
52651;BME280;38537;47.226;39.702;2023-04-06T03:41:34;100109.91;;;13.85;68.96
52651;BME280;38537;47.226;39.702;2023-04-06T03:44:34;100141.88;;;13.93;69.36
52651;BME280;38537;47.226;39.702;2023-04-06T03:47:03;100137.66;;;13.69;69.81
52651;BME280;38537;47.226;39.702;2023-04-06T03:49:30;100147.72;;;13.70;70.25
52651;BME280;38537;47.226;39.702;2023-04-06T03:52:01;100145.97;;;13.57;70.29
52651;BME280;38537;47.226;39.702;2023-04-06T03:54:29;100134.56;;;13.62;70.25
52651;BME280;38537;47.226;39.702;2023-04-06T03:56:56;100128.22;;;13.83;69.50
52651;BME280;38537;47.226;39.702;2023-04-06T03:59:26;100143.53;;;13.94;70.30
52651;BME280;38537;47.226;39.702;2023-04-06T04:01:54;100137.97;;;13.77;70.12
52651;BME280;38537;47.226;39.702;2023-04-06T04:04:22;100149.53;;;13.75;70.80
52651;BME280;38537;47.226;39.702;2023-04-06T04:06:50;100158.78;;;13.76;71.06
52651;BME280;38537;47.226;39.702;2023-04-06T04:09:18;100152.72;;;13.56;71.01
52651;BME280;38537;47.226;39.702;2023-04-06T04:11:45;100142.50;;;13.43;71.50
52651;BME280;38537;47.226;39.702;2023-04-06T04:14:14;100182.88;;;13.68;71.55
52651;BME280;38537;47.226;39.702;2023-04-06T04:16:41;100142.16;;;13.53;71.10
52651;BME280;38537;47.226;39.702;2023-04-06T04:19:09;100172.16;;;13.79;71.33
52651;BME280;38537;47.226;39.702;2023-04-06T04:21:43;100172.81;;;13.84;72.16
52651;BME280;38537;47.226;39.702;2023-04-06T04:24:16;100141.44;;;13.73;71.66
52651;BME280;38537;47.226;39.702;2023-04-06T04:26:43;100146.19;;;13.90;71.52
52651;BME280;38537;47.226;39.702;2023-04-06T04:29:11;100134.19;;;13.72;71.17
52651;BME280;38537;47.226;39.702;2023-04-06T04:31:38;100146.06;;;13.69;71.61
52651;BME280;38537;47.226;39.702;2023-04-06T04:34:13;100122.19;;;13.55;71.86
52651;BME280;38537;47.226;39.702;2023-04-06T04:36:41;100127.31;;;13.61;72.10
52651;BME280;38537;47.226;39.702;2023-04-06T04:39:14;100121.69;;;13.61;72.30
52651;BME280;38537;47.226;39.702;2023-04-06T04:41:46;100129.47;;;13.56;72.66
52651;BME280;38537;47.226;39.702;2023-04-06T04:44:13;100111.69;;;13.34;72.68
52651;BME280;38537;47.226;39.702;2023-04-06T04:46:41;100151.19;;;13.67;72.73
52651;BME280;38537;47.226;39.702;2023-04-06T04:49:11;100145.59;;;13.67;73.02
52651;BME280;38537;47.226;39.702;2023-04-06T04:51:40;100142.13;;;13.70;72.33
52651;BME280;38537;47.226;39.702;2023-04-06T04:54:11;100164.00;;;13.86;72.73
52651;BME280;38537;47.226;39.702;2023-04-06T04:56:40;100155.47;;;13.82;72.66
52651;BME280;38537;47.226;39.702;2023-04-06T04:59:27;100162.16;;;14.07;71.00
52651;BME280;38537;47.226;39.702;2023-04-06T05:02:03;100152.34;;;14.13;71.67
52651;BME280;38537;47.226;39.702;2023-04-06T05:04:41;100134.53;;;14.09;72.00
52651;BME280;38537;47.226;39.702;2023-04-06T05:07:13;100116.97;;;14.21;71.67
52651;BME280;38537;47.226;39.702;2023-04-06T05:09:42;100151.25;;;14.35;71.44
52651;BME280;38537;47.226;39.702;2023-04-06T05:12:11;100130.75;;;14.34;71.51
52651;BME280;38537;47.226;39.702;2023-04-06T05:14:49;100110.63;;;14.32;70.97
52651;BME280;38537;47.226;39.702;2023-04-06T05:17:18;100121.66;;;14.46;70.85
52651;BME280;38537;47.226;39.702;2023-04-06T05:19:46;100148.19;;;14.57;71.00
52651;BME280;38537;47.226;39.702;2023-04-06T05:22:19;100139.00;;;14.39;70.39
52651;BME280;38537;47.226;39.702;2023-04-06T05:24:56;100153.56;;;14.42;71.09
52651;BME280;38537;47.226;39.702;2023-04-06T05:27:24;100140.84;;;14.35;71.58
52651;BME280;38537;47.226;39.702;2023-04-06T05:29:52;100158.66;;;14.39;71.79
52651;BME280;38537;47.226;39.702;2023-04-06T05:32:27;100162.34;;;14.31;72.04
52651;BME280;38537;47.226;39.702;2023-04-06T05:34:54;100157.69;;;14.35;71.59
52651;BME280;38537;47.226;39.702;2023-04-06T05:37:23;100156.59;;;14.28;71.40
52651;BME280;38537;47.226;39.702;2023-04-06T05:39:50;100155.78;;;14.27;71.07
52651;BME280;38537;47.226;39.702;2023-04-06T05:42:19;100178.56;;;14.64;69.89
52651;BME280;38537;47.226;39.702;2023-04-06T05:44:51;100167.94;;;14.69;69.11
52651;BME280;38537;47.226;39.702;2023-04-06T05:47:19;100168.91;;;14.73;67.89
52651;BME280;38537;47.226;39.702;2023-04-06T05:49:53;100192.22;;;15.16;67.11
52651;BME280;38537;47.226;39.702;2023-04-06T05:52:39;100185.25;;;15.22;67.40
52651;BME280;38537;47.226;39.702;2023-04-06T05:55:12;100205.53;;;15.48;66.58
52651;BME280;38537;47.226;39.702;2023-04-06T05:57:43;100191.75;;;15.34;66.89
52651;BME280;38537;47.226;39.702;2023-04-06T06:00:14;100204.44;;;15.40;66.91
52651;BME280;38537;47.226;39.702;2023-04-06T06:02:51;100199.09;;;15.48;66.13
52651;BME280;38537;47.226;39.702;2023-04-06T06:05:23;100197.16;;;15.39;66.42
52651;BME280;38537;47.226;39.702;2023-04-06T06:07:50;100213.84;;;15.24;66.64
52651;BME280;38537;47.226;39.702;2023-04-06T06:10:20;100195.47;;;15.05;67.27
52651;BME280;38537;47.226;39.702;2023-04-06T06:12:49;100211.47;;;15.14;67.35
52651;BME280;38537;47.226;39.702;2023-04-06T06:15:16;100212.16;;;15.11;67.55
52651;BME280;38537;47.226;39.702;2023-04-06T06:17:46;100211.03;;;15.03;67.61
52651;BME280;38537;47.226;39.702;2023-04-06T06:20:14;100201.47;;;14.95;67.79
52651;BME280;38537;47.226;39.702;2023-04-06T06:22:43;100191.28;;;15.12;67.07
52651;BME280;38537;47.226;39.702;2023-04-06T06:25:15;100215.16;;;15.47;66.87
52651;BME280;38537;47.226;39.702;2023-04-06T06:27:45;100187.66;;;15.32;66.68
52651;BME280;38537;47.226;39.702;2023-04-06T06:30:14;100190.38;;;15.40;66.74
52651;BME280;38537;47.226;39.702;2023-04-06T06:32:43;100224.75;;;15.67;66.37
52651;BME280;38537;47.226;39.702;2023-04-06T06:35:10;100210.13;;;15.73;66.17
52651;BME280;38537;47.226;39.702;2023-04-06T06:37:38;100201.41;;;15.66;66.27
52651;BME280;38537;47.226;39.702;2023-04-06T06:40:10;100207.09;;;15.79;65.93
52651;BME280;38537;47.226;39.702;2023-04-06T06:42:41;100213.28;;;15.72;66.16
52651;BME280;38537;47.226;39.702;2023-04-06T06:45:18;100207.25;;;15.61;66.73
52651;BME280;38537;47.226;39.702;2023-04-06T06:47:47;100222.09;;;15.83;66.53
52651;BME280;38537;47.226;39.702;2023-04-06T06:50:14;100226.63;;;15.96;65.85
52651;BME280;38537;47.226;39.702;2023-04-06T06:52:44;100212.84;;;15.82;66.12
52651;BME280;38537;47.226;39.702;2023-04-06T06:55:13;100222.63;;;15.97;66.13
52651;BME280;38537;47.226;39.702;2023-04-06T06:57:42;100237.00;;;16.16;65.85
52651;BME280;38537;47.226;39.702;2023-04-06T07:00:10;100201.13;;;15.92;66.14
52651;BME280;38537;47.226;39.702;2023-04-06T07:02:41;100214.09;;;16.18;65.78
52651;BME280;38537;47.226;39.702;2023-04-06T07:05:13;100222.66;;;16.09;66.19
52651;BME280;38537;47.226;39.702;2023-04-06T07:07:54;100227.81;;;16.07;66.24
52651;BME280;38537;47.226;39.702;2023-04-06T07:10:22;100218.53;;;16.06;66.19
52651;BME280;38537;47.226;39.702;2023-04-06T07:12:49;100209.66;;;16.17;65.77
52651;BME280;38537;47.226;39.702;2023-04-06T07:15:17;100202.25;;;16.12;65.69
52651;BME280;38537;47.226;39.702;2023-04-06T07:17:45;100225.16;;;16.23;65.50
52651;BME280;38537;47.226;39.702;2023-04-06T07:20:13;100226.22;;;16.30;65.46
52651;BME280;38537;47.226;39.702;2023-04-06T07:22:43;100223.66;;;16.37;65.13
52651;BME280;38537;47.226;39.702;2023-04-06T07:25:12;100232.84;;;16.71;64.09
52651;BME280;38537;47.226;39.702;2023-04-06T07:27:41;100238.25;;;16.76;64.37
52651;BME280;38537;47.226;39.702;2023-04-06T07:30:10;100234.69;;;16.91;63.40
52651;BME280;38537;47.226;39.702;2023-04-06T07:32:38;100251.31;;;17.33;62.39
52651;BME280;38537;47.226;39.702;2023-04-06T07:35:05;100266.31;;;17.61;61.35
52651;BME280;38537;47.226;39.702;2023-04-06T07:37:33;100245.78;;;17.76;60.96
52651;BME280;38537;47.226;39.702;2023-04-06T07:40:00;100242.47;;;17.87;60.49
52651;BME280;38537;47.226;39.702;2023-04-06T07:42:29;100259.88;;;18.17;59.88
52651;BME280;38537;47.226;39.702;2023-04-06T07:44:56;100232.69;;;18.12;59.43
52651;BME280;38537;47.226;39.702;2023-04-06T07:47:24;100260.41;;;18.22;59.95
52651;BME280;38537;47.226;39.702;2023-04-06T07:49:51;100249.75;;;18.15;59.68
52651;BME280;38537;47.226;39.702;2023-04-06T07:52:19;100248.31;;;18.37;59.02
52651;BME280;38537;47.226;39.702;2023-04-06T07:54:47;100243.56;;;18.57;58.54
52651;BME280;38537;47.226;39.702;2023-04-06T07:57:16;100247.41;;;18.65;58.03
52651;BME280;38537;47.226;39.702;2023-04-06T07:59:44;100241.56;;;18.73;57.71
52651;BME280;38537;47.226;39.702;2023-04-06T08:02:11;100244.88;;;18.75;57.82
52651;BME280;38537;47.226;39.702;2023-04-06T08:04:39;100245.56;;;18.88;57.68
52651;BME280;38537;47.226;39.702;2023-04-06T08:07:06;100243.69;;;19.11;56.76
52651;BME280;38537;47.226;39.702;2023-04-06T08:09:33;100260.44;;;19.36;56.16
52651;BME280;38537;47.226;39.702;2023-04-06T08:12:04;100249.81;;;19.48;55.77
52651;BME280;38537;47.226;39.702;2023-04-06T08:14:31;100257.88;;;19.46;56.02
52651;BME280;38537;47.226;39.702;2023-04-06T08:16:58;100249.91;;;19.52;55.54
52651;BME280;38537;47.226;39.702;2023-04-06T08:19:26;100244.47;;;19.63;55.29
52651;BME280;38537;47.226;39.702;2023-04-06T08:21:53;100231.69;;;18.99;56.26
52651;BME280;38537;47.226;39.702;2023-04-06T08:24:20;100255.34;;;18.75;56.96
52651;BME280;38537;47.226;39.702;2023-04-06T08:26:48;100244.38;;;18.58;57.23
52651;BME280;38537;47.226;39.702;2023-04-06T08:29:18;100254.06;;;18.57;57.45
52651;BME280;38537;47.226;39.702;2023-04-06T08:31:45;100252.19;;;18.61;57.10
52651;BME280;38537;47.226;39.702;2023-04-06T08:34:12;100263.72;;;18.56;57.53
52651;BME280;38537;47.226;39.702;2023-04-06T08:36:41;100275.75;;;18.53;57.45
52651;BME280;38537;47.226;39.702;2023-04-06T08:39:08;100272.75;;;18.45;57.69
52651;BME280;38537;47.226;39.702;2023-04-06T08:41:36;100272.47;;;18.50;57.36
52651;BME280;38537;47.226;39.702;2023-04-06T08:44:03;100260.25;;;18.31;57.57
52651;BME280;38537;47.226;39.702;2023-04-06T08:46:33;100263.22;;;18.22;57.74
52651;BME280;38537;47.226;39.702;2023-04-06T08:49:02;100281.19;;;18.14;57.98
52651;BME280;38537;47.226;39.702;2023-04-06T08:51:30;100270.28;;;18.00;58.37
52651;BME280;38537;47.226;39.702;2023-04-06T08:53:58;100270.72;;;18.14;58.40
52651;BME280;38537;47.226;39.702;2023-04-06T08:56:27;100273.53;;;17.87;58.64
52651;BME280;38537;47.226;39.702;2023-04-06T08:58:55;100284.16;;;18.05;58.38
52651;BME280;38537;47.226;39.702;2023-04-06T09:01:26;100287.19;;;17.85;58.85
52651;BME280;38537;47.226;39.702;2023-04-06T09:03:59;100272.41;;;17.63;59.29
52651;BME280;38537;47.226;39.702;2023-04-06T09:06:27;100282.97;;;17.78;59.19
52651;BME280;38537;47.226;39.702;2023-04-06T09:08:55;100276.56;;;17.66;59.14
52651;BME280;38537;47.226;39.702;2023-04-06T09:11:22;100274.22;;;17.96;58.69
52651;BME280;38537;47.226;39.702;2023-04-06T09:13:50;100292.03;;;18.12;58.21
52651;BME280;38537;47.226;39.702;2023-04-06T09:16:18;100286.88;;;18.02;57.64
52651;BME280;38537;47.226;39.702;2023-04-06T09:18:46;100273.28;;;17.92;58.03
52651;BME280;38537;47.226;39.702;2023-04-06T09:21:18;100280.59;;;17.93;57.93
52651;BME280;38537;47.226;39.702;2023-04-06T09:24:00;100273.59;;;17.74;57.85
52651;BME280;38537;47.226;39.702;2023-04-06T09:26:28;100280.16;;;17.78;58.04
52651;BME280;38537;47.226;39.702;2023-04-06T09:28:57;100296.84;;;17.84;57.55
52651;BME280;38537;47.226;39.702;2023-04-06T09:31:29;100292.00;;;17.96;57.45
52651;BME280;38537;47.226;39.702;2023-04-06T09:33:57;100282.31;;;17.97;57.37
52651;BME280;38537;47.226;39.702;2023-04-06T09:36:36;100296.50;;;18.13;56.98
52651;BME280;38537;47.226;39.702;2023-04-06T09:39:08;100300.50;;;18.12;56.63
52651;BME280;38537;47.226;39.702;2023-04-06T09:41:35;100283.66;;;17.88;56.76
52651;BME280;38537;47.226;39.702;2023-04-06T09:44:09;100293.88;;;17.92;56.33
52651;BME280;38537;47.226;39.702;2023-04-06T09:46:40;100302.41;;;18.08;56.30
52651;BME280;38537;47.226;39.702;2023-04-06T09:49:27;100297.22;;;18.10;55.48
52651;BME280;38537;47.226;39.702;2023-04-06T09:52:06;100313.84;;;18.27;55.22
52651;BME280;38537;47.226;39.702;2023-04-06T09:54:35;100302.97;;;18.13;54.78
52651;BME280;38537;47.226;39.702;2023-04-06T09:57:27;100313.28;;;18.22;54.54
52651;BME280;38537;47.226;39.702;2023-04-06T10:05:42;100327.63;;;18.29;55.24
52651;BME280;38537;47.226;39.702;2023-04-06T10:08:11;100324.31;;;18.11;55.39
52651;BME280;38537;47.226;39.702;2023-04-06T10:10:39;100318.25;;;17.97;55.43
52651;BME280;38537;47.226;39.702;2023-04-06T10:13:07;100300.84;;;17.83;55.49
52651;BME280;38537;47.226;39.702;2023-04-06T10:15:38;100313.44;;;17.85;55.80
52651;BME280;38537;47.226;39.702;2023-04-06T10:18:07;100319.69;;;17.91;55.77
52651;BME280;38537;47.226;39.702;2023-04-06T10:23:19;100314.75;;;17.75;56.06
52651;BME280;38537;47.226;39.702;2023-04-06T10:28:22;100306.03;;;17.80;55.41
52651;BME280;38537;47.226;39.702;2023-04-06T10:30:49;100331.09;;;17.94;55.32
52651;BME280;38537;47.226;39.702;2023-04-06T10:33:23;100329.97;;;17.99;55.54
52651;BME280;38537;47.226;39.702;2023-04-06T10:35:51;100325.56;;;17.86;55.29
52651;BME280;38537;47.226;39.702;2023-04-06T10:38:19;100309.84;;;17.72;55.11
52651;BME280;38537;47.226;39.702;2023-04-06T10:40:51;100315.69;;;17.79;54.89
52651;BME280;38537;47.226;39.702;2023-04-06T10:43:19;100306.03;;;17.80;54.76
52651;BME280;38537;47.226;39.702;2023-04-06T10:45:56;100304.09;;;17.69;54.61
52651;BME280;38537;47.226;39.702;2023-04-06T10:48:24;100315.03;;;17.58;54.78
52651;BME280;38537;47.226;39.702;2023-04-06T10:50:52;100316.66;;;17.59;55.14
52651;BME280;38537;47.226;39.702;2023-04-06T10:53:25;100313.38;;;17.57;55.16
52651;BME280;38537;47.226;39.702;2023-04-06T10:55:56;100312.94;;;17.67;55.39
52651;BME280;38537;47.226;39.702;2023-04-06T10:58:27;100312.13;;;17.95;55.63
52651;BME280;38537;47.226;39.702;2023-04-06T11:00:55;100302.66;;;18.03;54.67
52651;BME280;38537;47.226;39.702;2023-04-06T11:03:26;100314.81;;;18.19;54.46
52651;BME280;38537;47.226;39.702;2023-04-06T11:05:54;100323.00;;;18.08;54.21
52651;BME280;38537;47.226;39.702;2023-04-06T11:10:50;100309.69;;;18.09;54.13
52651;BME280;38537;47.226;39.702;2023-04-06T11:13:18;100308.56;;;17.98;54.15
52651;BME280;38537;47.226;39.702;2023-04-06T11:15:45;100309.91;;;18.16;53.87
52651;BME280;38537;47.226;39.702;2023-04-06T11:18:17;100293.25;;;17.99;52.97
52651;BME280;38537;47.226;39.702;2023-04-06T11:20:48;100321.38;;;18.07;52.48
52651;BME280;38537;47.226;39.702;2023-04-06T11:23:24;100319.22;;;18.17;51.92
52651;BME280;38537;47.226;39.702;2023-04-06T11:25:52;100287.81;;;18.06;51.68
52651;BME280;38537;47.226;39.702;2023-04-06T11:28:20;100307.13;;;18.04;52.24
52651;BME280;38537;47.226;39.702;2023-04-06T11:30:48;100307.69;;;17.81;52.71
52651;BME280;38537;47.226;39.702;2023-04-06T11:33:22;100310.16;;;17.83;52.79
52651;BME280;38537;47.226;39.702;2023-04-06T11:35:50;100313.63;;;18.20;53.19
52651;BME280;38537;47.226;39.702;2023-04-06T11:38:18;100314.88;;;18.35;52.76
52651;BME280;38537;47.226;39.702;2023-04-06T11:40:53;100316.78;;;18.46;52.03
52651;BME280;38537;47.226;39.702;2023-04-06T11:43:30;100315.50;;;18.44;51.98
52651;BME280;38537;47.226;39.702;2023-04-06T11:46:03;100323.09;;;18.40;52.13
52651;BME280;38537;47.226;39.702;2023-04-06T11:48:31;100318.78;;;18.30;51.72
52651;BME280;38537;47.226;39.702;2023-04-06T11:50:59;100289.22;;;18.12;51.99
52651;BME280;38537;47.226;39.702;2023-04-06T11:53:28;100325.16;;;18.27;51.55
52651;BME280;38537;47.226;39.702;2023-04-06T11:55:56;100317.72;;;18.35;51.49
52651;BME280;38537;47.226;39.702;2023-04-06T11:58:23;100298.91;;;18.42;51.56
52651;BME280;38537;47.226;39.702;2023-04-06T12:00:51;100316.94;;;18.66;51.69
52651;BME280;38537;47.226;39.702;2023-04-06T12:03:18;100303.91;;;18.77;51.38
52651;BME280;38537;47.226;39.702;2023-04-06T12:05:45;100302.00;;;18.81;51.11
52651;BME280;38537;47.226;39.702;2023-04-06T12:08:13;100296.78;;;18.83;50.82
52651;BME280;38537;47.226;39.702;2023-04-06T12:10:40;100317.59;;;18.75;50.52
52651;BME280;38537;47.226;39.702;2023-04-06T12:13:07;100307.38;;;19.02;51.19
52651;BME280;38537;47.226;39.702;2023-04-06T12:15:34;100315.56;;;18.91;50.42
52651;BME280;38537;47.226;39.702;2023-04-06T12:18:02;100313.69;;;18.79;50.48
52651;BME280;38537;47.226;39.702;2023-04-06T12:20:31;100313.84;;;18.71;50.76
52651;BME280;38537;47.226;39.702;2023-04-06T12:22:58;100283.94;;;18.26;51.54
52651;BME280;38537;47.226;39.702;2023-04-06T12:25:27;100320.78;;;18.30;51.68
52651;BME280;38537;47.226;39.702;2023-04-06T12:27:56;100319.50;;;18.27;51.89
52651;BME280;38537;47.226;39.702;2023-04-06T12:30:24;100305.72;;;17.98;51.96
52651;BME280;38537;47.226;39.702;2023-04-06T12:32:52;100301.22;;;17.81;51.94
52651;BME280;38537;47.226;39.702;2023-04-06T12:35:19;100302.09;;;17.69;52.77
52651;BME280;38537;47.226;39.702;2023-04-06T12:37:47;100300.19;;;17.73;52.56
52651;BME280;38537;47.226;39.702;2023-04-06T12:40:14;100317.22;;;17.77;52.86
52651;BME280;38537;47.226;39.702;2023-04-06T12:42:42;100315.75;;;17.67;52.94
52651;BME280;38537;47.226;39.702;2023-04-06T12:45:10;100330.09;;;17.74;53.02
52651;BME280;38537;47.226;39.702;2023-04-06T12:47:37;100319.13;;;17.61;53.16
52651;BME280;38537;47.226;39.702;2023-04-06T12:50:05;100323.25;;;17.63;53.11
52651;BME280;38537;47.226;39.702;2023-04-06T12:52:33;100333.97;;;17.58;53.27
52651;BME280;38537;47.226;39.702;2023-04-06T12:55:05;100327.53;;;17.45;53.72
52651;BME280;38537;47.226;39.702;2023-04-06T12:57:32;100304.94;;;17.33;53.65
52651;BME280;38537;47.226;39.702;2023-04-06T13:00:00;100318.94;;;17.54;53.32
52651;BME280;38537;47.226;39.702;2023-04-06T13:02:30;100325.50;;;17.58;53.39
52651;BME280;38537;47.226;39.702;2023-04-06T13:04:57;100303.19;;;17.40;53.42
52651;BME280;38537;47.226;39.702;2023-04-06T13:07:25;100303.88;;;17.50;53.35
52651;BME280;38537;47.226;39.702;2023-04-06T13:09:52;100322.34;;;17.47;53.36